sensor_id;sensor_type;location;lat;lon;timestamp;P1;durP1;ratioP1;P2;durP2;ratioP2
75246;SDS011;63844;50.042;19.224;2023-10-08T00:00:39;9.70;;;2.30;;
75246;SDS011;63844;50.042;19.224;2023-10-08T00:02:41;9.00;;;2.40;;
75246;SDS011;63844;50.042;19.224;2023-10-08T00:04:18;5.90;;;1.70;;
75246;SDS011;63844;50.042;19.224;2023-10-08T00:05:55;7.90;;;2.00;;
75246;SDS011;63844;50.042;19.224;2023-10-08T00:07:31;5.10;;;2.10;;
75246;SDS011;63844;50.042;19.224;2023-10-08T00:09:08;7.30;;;2.00;;
75246;SDS011;63844;50.042;19.224;2023-10-08T00:10:45;5.80;;;1.80;;
75246;SDS011;63844;50.042;19.224;2023-10-08T00:12:21;7.00;;;2.10;;
75246;SDS011;63844;50.042;19.224;2023-10-08T00:13:57;7.60;;;2.50;;
75246;SDS011;63844;50.042;19.224;2023-10-08T00:15:35;6.30;;;2.50;;
75246;SDS011;63844;50.042;19.224;2023-10-08T00:17:13;11.40;;;2.30;;
75246;SDS011;63844;50.042;19.224;2023-10-08T00:18:49;6.50;;;1.80;;
75246;SDS011;63844;50.042;19.224;2023-10-08T00:20:26;9.90;;;2.00;;
75246;SDS011;63844;50.042;19.224;2023-10-08T00:22:11;6.60;;;1.70;;
75246;SDS011;63844;50.042;19.224;2023-10-08T00:23:49;6.00;;;2.40;;
75246;SDS011;63844;50.042;19.224;2023-10-08T00:25:29;5.60;;;1.90;;
75246;SDS011;63844;50.042;19.224;2023-10-08T00:27:07;9.10;;;2.50;;
75246;SDS011;63844;50.042;19.224;2023-10-08T00:28:44;3.20;;;1.60;;
75246;SDS011;63844;50.042;19.224;2023-10-08T00:30:23;5.00;;;2.00;;
75246;SDS011;63844;50.042;19.224;2023-10-08T00:32:00;5.70;;;2.00;;
75246;SDS011;63844;50.042;19.224;2023-10-08T00:33:47;4.70;;;1.80;;
75246;SDS011;63844;50.042;19.224;2023-10-08T00:35:24;4.60;;;1.60;;
75246;SDS011;63844;50.042;19.224;2023-10-08T00:37:00;6.10;;;2.40;;
75246;SDS011;63844;50.042;19.224;2023-10-08T00:38:37;4.70;;;1.90;;
75246;SDS011;63844;50.042;19.224;2023-10-08T00:40:20;6.00;;;2.20;;
75246;SDS011;63844;50.042;19.224;2023-10-08T00:41:57;6.30;;;2.10;;
75246;SDS011;63844;50.042;19.224;2023-10-08T00:43:40;5.10;;;1.70;;
75246;SDS011;63844;50.042;19.224;2023-10-08T00:45:18;7.20;;;2.00;;
75246;SDS011;63844;50.042;19.224;2023-10-08T00:46:58;5.50;;;2.00;;
75246;SDS011;63844;50.042;19.224;2023-10-08T00:48:40;5.40;;;2.00;;
75246;SDS011;63844;50.042;19.224;2023-10-08T00:50:20;6.10;;;1.80;;
75246;SDS011;63844;50.042;19.224;2023-10-08T00:51:57;7.30;;;1.90;;
75246;SDS011;63844;50.042;19.224;2023-10-08T00:55:16;7.50;;;2.40;;
75246;SDS011;63844;50.042;19.224;2023-10-08T00:57:04;5.30;;;2.20;;
75246;SDS011;63844;50.042;19.224;2023-10-08T00:58:42;9.20;;;2.60;;
75246;SDS011;63844;50.042;19.224;2023-10-08T01:00:23;6.10;;;1.90;;
75246;SDS011;63844;50.042;19.224;2023-10-08T01:02:08;5.30;;;2.10;;
75246;SDS011;63844;50.042;19.224;2023-10-08T01:03:50;6.00;;;2.00;;
75246;SDS011;63844;50.042;19.224;2023-10-08T01:05:27;7.00;;;2.40;;
75246;SDS011;63844;50.042;19.224;2023-10-08T01:07:22;5.90;;;2.50;;
75246;SDS011;63844;50.042;19.224;2023-10-08T01:09:01;7.80;;;3.00;;
75246;SDS011;63844;50.042;19.224;2023-10-08T01:10:53;8.20;;;2.40;;
75246;SDS011;63844;50.042;19.224;2023-10-08T01:12:36;15.90;;;3.90;;
75246;SDS011;63844;50.042;19.224;2023-10-08T01:14:25;4.50;;;2.50;;
75246;SDS011;63844;50.042;19.224;2023-10-08T01:16:08;5.70;;;2.60;;
75246;SDS011;63844;50.042;19.224;2023-10-08T01:17:46;5.80;;;3.20;;
75246;SDS011;63844;50.042;19.224;2023-10-08T01:19:34;8.30;;;2.90;;
75246;SDS011;63844;50.042;19.224;2023-10-08T01:21:16;5.30;;;2.60;;
75246;SDS011;63844;50.042;19.224;2023-10-08T01:23:08;5.50;;;2.80;;
75246;SDS011;63844;50.042;19.224;2023-10-08T01:24:46;8.00;;;3.30;;
75246;SDS011;63844;50.042;19.224;2023-10-08T01:26:25;10.10;;;3.20;;
75246;SDS011;63844;50.042;19.224;2023-10-08T01:28:05;8.30;;;3.10;;
75246;SDS011;63844;50.042;19.224;2023-10-08T01:29:51;7.90;;;3.20;;
75246;SDS011;63844;50.042;19.224;2023-10-08T01:31:28;6.40;;;3.00;;
75246;SDS011;63844;50.042;19.224;2023-10-08T01:33:04;4.50;;;3.40;;
75246;SDS011;63844;50.042;19.224;2023-10-08T01:34:41;5.70;;;3.50;;
75246;SDS011;63844;50.042;19.224;2023-10-08T01:36:21;6.60;;;3.80;;
75246;SDS011;63844;50.042;19.224;2023-10-08T01:37:59;6.50;;;3.90;;
75246;SDS011;63844;50.042;19.224;2023-10-08T01:39:36;5.40;;;3.60;;
75246;SDS011;63844;50.042;19.224;2023-10-08T01:41:13;8.40;;;4.50;;
75246;SDS011;63844;50.042;19.224;2023-10-08T01:42:56;6.90;;;4.50;;
75246;SDS011;63844;50.042;19.224;2023-10-08T01:44:43;4.90;;;3.50;;
75246;SDS011;63844;50.042;19.224;2023-10-08T01:46:22;5.60;;;4.20;;
75246;SDS011;63844;50.042;19.224;2023-10-08T01:47:58;6.90;;;4.00;;
75246;SDS011;63844;50.042;19.224;2023-10-08T01:49:35;5.20;;;3.90;;
75246;SDS011;63844;50.042;19.224;2023-10-08T01:51:13;5.90;;;4.00;;
75246;SDS011;63844;50.042;19.224;2023-10-08T01:53:00;5.70;;;4.00;;
75246;SDS011;63844;50.042;19.224;2023-10-08T01:54:37;6.90;;;3.10;;
75246;SDS011;63844;50.042;19.224;2023-10-08T01:56:14;6.20;;;3.60;;
75246;SDS011;63844;50.042;19.224;2023-10-08T01:57:50;3.70;;;2.70;;
75246;SDS011;63844;50.042;19.224;2023-10-08T01:59:30;3.40;;;2.40;;
75246;SDS011;63844;50.042;19.224;2023-10-08T02:01:07;4.80;;;2.50;;
75246;SDS011;63844;50.042;19.224;2023-10-08T02:02:49;4.30;;;2.50;;
75246;SDS011;63844;50.042;19.224;2023-10-08T02:04:26;2.50;;;2.10;;
75246;SDS011;63844;50.042;19.224;2023-10-08T02:06:03;3.10;;;2.20;;
75246;SDS011;63844;50.042;19.224;2023-10-08T02:07:42;3.90;;;2.40;;
75246;SDS011;63844;50.042;19.224;2023-10-08T02:09:21;3.90;;;2.70;;
75246;SDS011;63844;50.042;19.224;2023-10-08T02:11:02;4.00;;;2.50;;
75246;SDS011;63844;50.042;19.224;2023-10-08T02:12:39;1.50;;;1.10;;
75246;SDS011;63844;50.042;19.224;2023-10-08T02:14:17;1.00;;;0.60;;
75246;SDS011;63844;50.042;19.224;2023-10-08T02:15:54;1.90;;;0.60;;
75246;SDS011;63844;50.042;19.224;2023-10-08T02:17:31;0.90;;;0.70;;
75246;SDS011;63844;50.042;19.224;2023-10-08T02:19:08;1.70;;;1.20;;
75246;SDS011;63844;50.042;19.224;2023-10-08T02:20:46;1.40;;;1.10;;
75246;SDS011;63844;50.042;19.224;2023-10-08T02:22:24;2.30;;;1.20;;
75246;SDS011;63844;50.042;19.224;2023-10-08T02:24:00;3.90;;;1.50;;
75246;SDS011;63844;50.042;19.224;2023-10-08T02:25:39;1.90;;;1.20;;
75246;SDS011;63844;50.042;19.224;2023-10-08T02:27:16;2.10;;;1.10;;
75246;SDS011;63844;50.042;19.224;2023-10-08T02:28:53;2.20;;;1.30;;
75246;SDS011;63844;50.042;19.224;2023-10-08T02:30:30;1.70;;;1.20;;
75246;SDS011;63844;50.042;19.224;2023-10-08T02:32:07;2.10;;;1.00;;
75246;SDS011;63844;50.042;19.224;2023-10-08T02:33:44;2.40;;;1.20;;
75246;SDS011;63844;50.042;19.224;2023-10-08T02:35:20;5.00;;;1.80;;
75246;SDS011;63844;50.042;19.224;2023-10-08T02:36:58;3.90;;;1.90;;
75246;SDS011;63844;50.042;19.224;2023-10-08T02:38:35;3.40;;;1.80;;
75246;SDS011;63844;50.042;19.224;2023-10-08T02:40:14;4.10;;;2.20;;
75246;SDS011;63844;50.042;19.224;2023-10-08T02:42:02;3.30;;;1.90;;
75246;SDS011;63844;50.042;19.224;2023-10-08T02:43:38;4.90;;;2.20;;
75246;SDS011;63844;50.042;19.224;2023-10-08T02:45:18;4.40;;;2.00;;
75246;SDS011;63844;50.042;19.224;2023-10-08T02:46:54;5.70;;;2.10;;
75246;SDS011;63844;50.042;19.224;2023-10-08T02:48:31;3.60;;;1.90;;
75246;SDS011;63844;50.042;19.224;2023-10-08T02:50:07;5.90;;;2.20;;
75246;SDS011;63844;50.042;19.224;2023-10-08T02:51:45;5.00;;;2.10;;
75246;SDS011;63844;50.042;19.224;2023-10-08T02:53:22;6.00;;;1.80;;
75246;SDS011;63844;50.042;19.224;2023-10-08T02:55:02;4.70;;;1.90;;
75246;SDS011;63844;50.042;19.224;2023-10-08T02:56:39;3.20;;;1.40;;
75246;SDS011;63844;50.042;19.224;2023-10-08T02:58:16;4.20;;;1.70;;
75246;SDS011;63844;50.042;19.224;2023-10-08T02:59:55;3.60;;;1.20;;
75246;SDS011;63844;50.042;19.224;2023-10-08T03:01:31;4.70;;;1.10;;
75246;SDS011;63844;50.042;19.224;2023-10-08T03:03:10;2.90;;;1.00;;
75246;SDS011;63844;50.042;19.224;2023-10-08T03:04:51;2.40;;;1.00;;
75246;SDS011;63844;50.042;19.224;2023-10-08T03:06:28;2.50;;;0.80;;
75246;SDS011;63844;50.042;19.224;2023-10-08T03:08:08;2.00;;;0.60;;
75246;SDS011;63844;50.042;19.224;2023-10-08T03:09:47;1.20;;;0.60;;
75246;SDS011;63844;50.042;19.224;2023-10-08T03:11:26;1.50;;;0.50;;
75246;SDS011;63844;50.042;19.224;2023-10-08T03:13:03;2.10;;;0.60;;
75246;SDS011;63844;50.042;19.224;2023-10-08T03:14:41;1.20;;;0.40;;
75246;SDS011;63844;50.042;19.224;2023-10-08T03:16:26;0.80;;;0.30;;
75246;SDS011;63844;50.042;19.224;2023-10-08T03:18:10;0.90;;;0.40;;
75246;SDS011;63844;50.042;19.224;2023-10-08T03:19:50;1.20;;;0.30;;
75246;SDS011;63844;50.042;19.224;2023-10-08T03:21:28;1.00;;;0.40;;
75246;SDS011;63844;50.042;19.224;2023-10-08T03:23:14;1.60;;;0.40;;
75246;SDS011;63844;50.042;19.224;2023-10-08T03:24:59;1.30;;;0.20;;
75246;SDS011;63844;50.042;19.224;2023-10-08T03:26:51;0.30;;;0.20;;
75246;SDS011;63844;50.042;19.224;2023-10-08T03:28:31;0.70;;;0.30;;
75246;SDS011;63844;50.042;19.224;2023-10-08T03:30:11;1.10;;;0.20;;
75246;SDS011;63844;50.042;19.224;2023-10-08T03:31:50;0.80;;;0.10;;
75246;SDS011;63844;50.042;19.224;2023-10-08T03:33:27;1.20;;;0.10;;
75246;SDS011;63844;50.042;19.224;2023-10-08T03:35:05;2.40;;;0.30;;
75246;SDS011;63844;50.042;19.224;2023-10-08T03:36:47;1.00;;;0.30;;
75246;SDS011;63844;50.042;19.224;2023-10-08T03:38:25;1.40;;;0.20;;
75246;SDS011;63844;50.042;19.224;2023-10-08T03:40:20;1.00;;;0.30;;
75246;SDS011;63844;50.042;19.224;2023-10-08T03:42:22;1.60;;;0.30;;
75246;SDS011;63844;50.042;19.224;2023-10-08T03:44:00;1.10;;;0.30;;
75246;SDS011;63844;50.042;19.224;2023-10-08T03:45:41;0.80;;;0.20;;
75246;SDS011;63844;50.042;19.224;2023-10-08T03:47:38;1.50;;;0.30;;
75246;SDS011;63844;50.042;19.224;2023-10-08T03:49:15;0.50;;;0.10;;
75246;SDS011;63844;50.042;19.224;2023-10-08T03:50:57;0.30;;;0.20;;
75246;SDS011;63844;50.042;19.224;2023-10-08T03:52:42;1.20;;;0.20;;
75246;SDS011;63844;50.042;19.224;2023-10-08T03:54:21;1.00;;;0.20;;
75246;SDS011;63844;50.042;19.224;2023-10-08T03:56:06;0.80;;;0.20;;
75246;SDS011;63844;50.042;19.224;2023-10-08T03:57:42;1.00;;;0.20;;
75246;SDS011;63844;50.042;19.224;2023-10-08T03:59:20;1.50;;;0.20;;
75246;SDS011;63844;50.042;19.224;2023-10-08T04:01:06;1.00;;;0.30;;
75246;SDS011;63844;50.042;19.224;2023-10-08T04:02:46;2.30;;;0.30;;
75246;SDS011;63844;50.042;19.224;2023-10-08T04:04:30;0.70;;;0.20;;
75246;SDS011;63844;50.042;19.224;2023-10-08T04:06:26;0.80;;;0.50;;
75246;SDS011;63844;50.042;19.224;2023-10-08T04:08:12;0.90;;;0.40;;
75246;SDS011;63844;50.042;19.224;2023-10-08T04:10:00;0.60;;;0.20;;
75246;SDS011;63844;50.042;19.224;2023-10-08T04:11:46;0.50;;;0.20;;
75246;SDS011;63844;50.042;19.224;2023-10-08T04:13:32;2.30;;;0.40;;
75246;SDS011;63844;50.042;19.224;2023-10-08T04:15:08;1.50;;;0.30;;
75246;SDS011;63844;50.042;19.224;2023-10-08T04:16:46;1.10;;;0.30;;
75246;SDS011;63844;50.042;19.224;2023-10-08T04:18:22;1.70;;;0.10;;
75246;SDS011;63844;50.042;19.224;2023-10-08T04:19:59;0.30;;;0.10;;
75246;SDS011;63844;50.042;19.224;2023-10-08T04:21:36;0.70;;;0.20;;
75246;SDS011;63844;50.042;19.224;2023-10-08T04:23:12;1.30;;;0.20;;
75246;SDS011;63844;50.042;19.224;2023-10-08T04:24:57;0.80;;;0.30;;
75246;SDS011;63844;50.042;19.224;2023-10-08T04:26:35;1.90;;;0.20;;
75246;SDS011;63844;50.042;19.224;2023-10-08T04:28:12;0.70;;;0.20;;
75246;SDS011;63844;50.042;19.224;2023-10-08T04:29:50;1.10;;;0.10;;
75246;SDS011;63844;50.042;19.224;2023-10-08T04:31:27;0.90;;;0.30;;
75246;SDS011;63844;50.042;19.224;2023-10-08T04:33:05;1.10;;;0.20;;
75246;SDS011;63844;50.042;19.224;2023-10-08T04:34:51;2.50;;;0.20;;
75246;SDS011;63844;50.042;19.224;2023-10-08T04:36:32;1.40;;;0.40;;
75246;SDS011;63844;50.042;19.224;2023-10-08T04:38:09;4.30;;;0.60;;
75246;SDS011;63844;50.042;19.224;2023-10-08T04:39:47;0.80;;;0.30;;
75246;SDS011;63844;50.042;19.224;2023-10-08T04:41:30;0.80;;;0.30;;
75246;SDS011;63844;50.042;19.224;2023-10-08T04:43:07;1.30;;;0.30;;
75246;SDS011;63844;50.042;19.224;2023-10-08T04:44:46;1.30;;;0.50;;
75246;SDS011;63844;50.042;19.224;2023-10-08T04:46:23;1.60;;;0.40;;
75246;SDS011;63844;50.042;19.224;2023-10-08T04:48:14;3.10;;;0.40;;
75246;SDS011;63844;50.042;19.224;2023-10-08T04:49:56;2.20;;;0.40;;
75246;SDS011;63844;50.042;19.224;2023-10-08T04:51:33;2.70;;;1.10;;
75246;SDS011;63844;50.042;19.224;2023-10-08T04:53:19;2.90;;;0.90;;
75246;SDS011;63844;50.042;19.224;2023-10-08T04:55:04;2.30;;;0.70;;
75246;SDS011;63844;50.042;19.224;2023-10-08T04:56:51;3.00;;;0.40;;
75246;SDS011;63844;50.042;19.224;2023-10-08T04:58:29;1.60;;;0.80;;
75246;SDS011;63844;50.042;19.224;2023-10-08T05:00:10;1.90;;;0.70;;
75246;SDS011;63844;50.042;19.224;2023-10-08T05:01:51;2.70;;;0.40;;
75246;SDS011;63844;50.042;19.224;2023-10-08T05:03:50;2.60;;;0.40;;
75246;SDS011;63844;50.042;19.224;2023-10-08T05:05:43;3.30;;;0.50;;
75246;SDS011;63844;50.042;19.224;2023-10-08T05:07:44;4.00;;;0.60;;
75246;SDS011;63844;50.042;19.224;2023-10-08T05:09:20;2.80;;;0.30;;
75246;SDS011;63844;50.042;19.224;2023-10-08T05:10:56;2.20;;;0.40;;
75246;SDS011;63844;50.042;19.224;2023-10-08T05:12:37;5.10;;;0.60;;
75246;SDS011;63844;50.042;19.224;2023-10-08T05:14:23;3.60;;;1.00;;
75246;SDS011;63844;50.042;19.224;2023-10-08T05:16:09;3.20;;;0.40;;
75246;SDS011;63844;50.042;19.224;2023-10-08T05:18:09;1.40;;;0.40;;
75246;SDS011;63844;50.042;19.224;2023-10-08T05:19:50;1.00;;;0.30;;
75246;SDS011;63844;50.042;19.224;2023-10-08T05:21:45;2.90;;;0.50;;
75246;SDS011;63844;50.042;19.224;2023-10-08T05:23:41;1.70;;;0.50;;
75246;SDS011;63844;50.042;19.224;2023-10-08T05:25:43;2.70;;;0.30;;
75246;SDS011;63844;50.042;19.224;2023-10-08T05:27:39;3.10;;;0.50;;
75246;SDS011;63844;50.042;19.224;2023-10-08T05:29:25;4.30;;;0.50;;
75246;SDS011;63844;50.042;19.224;2023-10-08T05:31:15;2.40;;;0.40;;
75246;SDS011;63844;50.042;19.224;2023-10-08T05:32:55;2.40;;;0.60;;
75246;SDS011;63844;50.042;19.224;2023-10-08T05:35:04;1.20;;;0.50;;
75246;SDS011;63844;50.042;19.224;2023-10-08T05:37:08;1.00;;;0.40;;
75246;SDS011;63844;50.042;19.224;2023-10-08T05:38:51;4.70;;;0.60;;
75246;SDS011;63844;50.042;19.224;2023-10-08T05:40:36;1.20;;;0.40;;
75246;SDS011;63844;50.042;19.224;2023-10-08T05:42:31;2.50;;;0.70;;
75246;SDS011;63844;50.042;19.224;2023-10-08T05:44:08;2.10;;;0.50;;
75246;SDS011;63844;50.042;19.224;2023-10-08T05:45:50;3.50;;;1.10;;
75246;SDS011;63844;50.042;19.224;2023-10-08T05:47:49;1.50;;;0.80;;
75246;SDS011;63844;50.042;19.224;2023-10-08T05:49:49;2.30;;;0.80;;
75246;SDS011;63844;50.042;19.224;2023-10-08T05:51:49;2.80;;;0.70;;
75246;SDS011;63844;50.042;19.224;2023-10-08T05:53:25;3.60;;;0.70;;
75246;SDS011;63844;50.042;19.224;2023-10-08T05:55:19;1.80;;;0.70;;
75246;SDS011;63844;50.042;19.224;2023-10-08T05:57:06;5.00;;;1.20;;
75246;SDS011;63844;50.042;19.224;2023-10-08T05:58:50;4.00;;;1.20;;
75246;SDS011;63844;50.042;19.224;2023-10-08T06:00:47;6.20;;;1.80;;
75246;SDS011;63844;50.042;19.224;2023-10-08T06:02:30;3.80;;;1.50;;
75246;SDS011;63844;50.042;19.224;2023-10-08T06:04:10;3.90;;;1.60;;
75246;SDS011;63844;50.042;19.224;2023-10-08T06:06:19;4.70;;;2.10;;
75246;SDS011;63844;50.042;19.224;2023-10-08T06:07:55;4.70;;;2.70;;
75246;SDS011;63844;50.042;19.224;2023-10-08T06:09:33;6.90;;;2.40;;
75246;SDS011;63844;50.042;19.224;2023-10-08T06:11:13;4.30;;;1.70;;
75246;SDS011;63844;50.042;19.224;2023-10-08T06:13:05;5.30;;;1.30;;
75246;SDS011;63844;50.042;19.224;2023-10-08T06:14:52;6.30;;;1.10;;
75246;SDS011;63844;50.042;19.224;2023-10-08T06:16:43;2.80;;;1.70;;
75246;SDS011;63844;50.042;19.224;2023-10-08T06:18:21;4.90;;;1.30;;
75246;SDS011;63844;50.042;19.224;2023-10-08T06:20:02;4.80;;;1.40;;
75246;SDS011;63844;50.042;19.224;2023-10-08T06:21:46;3.40;;;1.00;;
75246;SDS011;63844;50.042;19.224;2023-10-08T06:23:22;6.20;;;1.90;;
75246;SDS011;63844;50.042;19.224;2023-10-08T06:25:02;3.10;;;1.30;;
75246;SDS011;63844;50.042;19.224;2023-10-08T06:26:53;5.90;;;2.10;;
75246;SDS011;63844;50.042;19.224;2023-10-08T06:28:32;2.20;;;1.10;;
75246;SDS011;63844;50.042;19.224;2023-10-08T06:30:12;4.00;;;1.40;;
75246;SDS011;63844;50.042;19.224;2023-10-08T06:31:53;7.20;;;1.50;;
75246;SDS011;63844;50.042;19.224;2023-10-08T06:33:31;2.50;;;1.40;;
75246;SDS011;63844;50.042;19.224;2023-10-08T06:35:09;4.70;;;1.50;;
75246;SDS011;63844;50.042;19.224;2023-10-08T06:36:53;3.30;;;1.60;;
75246;SDS011;63844;50.042;19.224;2023-10-08T06:38:32;3.00;;;1.40;;
75246;SDS011;63844;50.042;19.224;2023-10-08T06:40:09;4.30;;;1.50;;
75246;SDS011;63844;50.042;19.224;2023-10-08T06:42:07;4.40;;;1.90;;
75246;SDS011;63844;50.042;19.224;2023-10-08T06:43:44;3.00;;;1.40;;
75246;SDS011;63844;50.042;19.224;2023-10-08T06:45:41;2.50;;;1.30;;
75246;SDS011;63844;50.042;19.224;2023-10-08T06:47:20;4.30;;;1.30;;
75246;SDS011;63844;50.042;19.224;2023-10-08T06:48:57;4.40;;;1.30;;
75246;SDS011;63844;50.042;19.224;2023-10-08T06:50:47;3.50;;;1.00;;
75246;SDS011;63844;50.042;19.224;2023-10-08T06:52:24;3.20;;;1.30;;
75246;SDS011;63844;50.042;19.224;2023-10-08T06:54:02;2.80;;;1.20;;
75246;SDS011;63844;50.042;19.224;2023-10-08T06:55:40;3.60;;;1.60;;
75246;SDS011;63844;50.042;19.224;2023-10-08T06:57:18;4.10;;;1.70;;
75246;SDS011;63844;50.042;19.224;2023-10-08T06:58:56;4.60;;;2.00;;
75246;SDS011;63844;50.042;19.224;2023-10-08T07:00:35;3.30;;;1.80;;
75246;SDS011;63844;50.042;19.224;2023-10-08T07:02:14;3.30;;;1.30;;
75246;SDS011;63844;50.042;19.224;2023-10-08T07:03:51;5.40;;;1.70;;
75246;SDS011;63844;50.042;19.224;2023-10-08T07:05:33;2.70;;;1.70;;
75246;SDS011;63844;50.042;19.224;2023-10-08T07:07:15;3.80;;;1.60;;
75246;SDS011;63844;50.042;19.224;2023-10-08T07:08:55;5.00;;;1.90;;
75246;SDS011;63844;50.042;19.224;2023-10-08T07:10:31;5.00;;;1.80;;
75246;SDS011;63844;50.042;19.224;2023-10-08T07:12:10;5.00;;;2.10;;
75246;SDS011;63844;50.042;19.224;2023-10-08T07:13:50;5.20;;;2.20;;
75246;SDS011;63844;50.042;19.224;2023-10-08T07:15:28;4.10;;;1.90;;
75246;SDS011;63844;50.042;19.224;2023-10-08T07:17:06;4.50;;;2.10;;
75246;SDS011;63844;50.042;19.224;2023-10-08T07:18:44;6.90;;;2.40;;
75246;SDS011;63844;50.042;19.224;2023-10-08T07:20:31;4.50;;;2.70;;
75246;SDS011;63844;50.042;19.224;2023-10-08T07:22:14;5.50;;;3.10;;
75246;SDS011;63844;50.042;19.224;2023-10-08T07:24:05;5.80;;;2.90;;
75246;SDS011;63844;50.042;19.224;2023-10-08T07:25:46;5.40;;;2.40;;
75246;SDS011;63844;50.042;19.224;2023-10-08T07:29:08;5.10;;;2.20;;
75246;SDS011;63844;50.042;19.224;2023-10-08T07:30:44;5.30;;;2.30;;
75246;SDS011;63844;50.042;19.224;2023-10-08T07:32:21;3.90;;;1.60;;
75246;SDS011;63844;50.042;19.224;2023-10-08T07:33:58;3.80;;;1.20;;
75246;SDS011;63844;50.042;19.224;2023-10-08T07:35:51;2.60;;;0.90;;
75246;SDS011;63844;50.042;19.224;2023-10-08T07:37:33;4.00;;;1.10;;
75246;SDS011;63844;50.042;19.224;2023-10-08T07:39:09;5.80;;;1.40;;
75246;SDS011;63844;50.042;19.224;2023-10-08T07:41:01;3.50;;;1.40;;
75246;SDS011;63844;50.042;19.224;2023-10-08T07:42:38;3.40;;;1.60;;
75246;SDS011;63844;50.042;19.224;2023-10-08T07:44:14;4.00;;;1.30;;
75246;SDS011;63844;50.042;19.224;2023-10-08T07:45:50;2.90;;;0.50;;
75246;SDS011;63844;50.042;19.224;2023-10-08T07:47:29;1.50;;;0.80;;
75246;SDS011;63844;50.042;19.224;2023-10-08T07:49:06;4.20;;;1.00;;
75246;SDS011;63844;50.042;19.224;2023-10-08T07:50:43;2.20;;;0.60;;
75246;SDS011;63844;50.042;19.224;2023-10-08T07:52:24;2.60;;;0.90;;
75246;SDS011;63844;50.042;19.224;2023-10-08T07:54:01;2.30;;;0.70;;
75246;SDS011;63844;50.042;19.224;2023-10-08T07:55:37;2.80;;;1.00;;
75246;SDS011;63844;50.042;19.224;2023-10-08T07:57:14;2.40;;;0.80;;
75246;SDS011;63844;50.042;19.224;2023-10-08T07:59:02;3.20;;;1.10;;
75246;SDS011;63844;50.042;19.224;2023-10-08T08:02:32;2.20;;;0.70;;
75246;SDS011;63844;50.042;19.224;2023-10-08T08:04:12;3.80;;;0.90;;
75246;SDS011;63844;50.042;19.224;2023-10-08T08:05:58;2.10;;;0.60;;
75246;SDS011;63844;50.042;19.224;2023-10-08T08:07:36;3.30;;;1.20;;
75246;SDS011;63844;50.042;19.224;2023-10-08T08:09:14;2.20;;;0.90;;
75246;SDS011;63844;50.042;19.224;2023-10-08T08:10:55;3.10;;;0.80;;
75246;SDS011;63844;50.042;19.224;2023-10-08T08:12:33;1.80;;;0.80;;
75246;SDS011;63844;50.042;19.224;2023-10-08T08:14:11;3.30;;;1.10;;
75246;SDS011;63844;50.042;19.224;2023-10-08T08:15:53;3.10;;;1.30;;
75246;SDS011;63844;50.042;19.224;2023-10-08T08:17:34;3.70;;;1.10;;
75246;SDS011;63844;50.042;19.224;2023-10-08T08:19:10;4.10;;;1.00;;
75246;SDS011;63844;50.042;19.224;2023-10-08T08:20:49;3.80;;;1.30;;
75246;SDS011;63844;50.042;19.224;2023-10-08T08:22:25;3.60;;;1.50;;
75246;SDS011;63844;50.042;19.224;2023-10-08T08:24:07;3.30;;;1.30;;
75246;SDS011;63844;50.042;19.224;2023-10-08T08:25:44;3.20;;;1.20;;
75246;SDS011;63844;50.042;19.224;2023-10-08T08:27:42;3.60;;;1.30;;
75246;SDS011;63844;50.042;19.224;2023-10-08T08:29:22;4.30;;;1.70;;
75246;SDS011;63844;50.042;19.224;2023-10-08T08:31:03;3.40;;;1.50;;
75246;SDS011;63844;50.042;19.224;2023-10-08T08:32:41;5.20;;;1.50;;
75246;SDS011;63844;50.042;19.224;2023-10-08T08:34:23;6.10;;;1.60;;
75246;SDS011;63844;50.042;19.224;2023-10-08T08:36:00;2.80;;;1.30;;
75246;SDS011;63844;50.042;19.224;2023-10-08T08:37:37;5.90;;;1.80;;
75246;SDS011;63844;50.042;19.224;2023-10-08T08:39:15;3.90;;;1.70;;
75246;SDS011;63844;50.042;19.224;2023-10-08T08:41:05;5.60;;;2.40;;
75246;SDS011;63844;50.042;19.224;2023-10-08T08:42:45;4.30;;;2.20;;
75246;SDS011;63844;50.042;19.224;2023-10-08T08:44:23;3.40;;;1.90;;
75246;SDS011;63844;50.042;19.224;2023-10-08T08:46:05;4.00;;;1.50;;
75246;SDS011;63844;50.042;19.224;2023-10-08T08:47:43;3.90;;;1.90;;
75246;SDS011;63844;50.042;19.224;2023-10-08T08:49:21;2.80;;;1.70;;
75246;SDS011;63844;50.042;19.224;2023-10-08T08:50:57;6.20;;;1.80;;
75246;SDS011;63844;50.042;19.224;2023-10-08T08:52:35;3.90;;;1.80;;
75246;SDS011;63844;50.042;19.224;2023-10-08T08:54:15;6.30;;;2.00;;
75246;SDS011;63844;50.042;19.224;2023-10-08T08:55:52;6.00;;;1.50;;
75246;SDS011;63844;50.042;19.224;2023-10-08T08:57:31;4.10;;;1.90;;
75246;SDS011;63844;50.042;19.224;2023-10-08T08:59:08;2.90;;;1.30;;
75246;SDS011;63844;50.042;19.224;2023-10-08T09:00:48;2.90;;;1.40;;
75246;SDS011;63844;50.042;19.224;2023-10-08T09:02:28;4.90;;;2.40;;
75246;SDS011;63844;50.042;19.224;2023-10-08T09:04:05;4.80;;;1.90;;
75246;SDS011;63844;50.042;19.224;2023-10-08T09:05:42;3.20;;;1.10;;
75246;SDS011;63844;50.042;19.224;2023-10-08T09:07:25;2.80;;;1.40;;
75246;SDS011;63844;50.042;19.224;2023-10-08T09:09:02;2.40;;;1.70;;
75246;SDS011;63844;50.042;19.224;2023-10-08T09:10:58;2.80;;;1.50;;
75246;SDS011;63844;50.042;19.224;2023-10-08T09:12:37;3.30;;;1.10;;
75246;SDS011;63844;50.042;19.224;2023-10-08T09:14:15;6.70;;;1.70;;
75246;SDS011;63844;50.042;19.224;2023-10-08T09:15:51;4.80;;;1.60;;
75246;SDS011;63844;50.042;19.224;2023-10-08T09:17:28;2.90;;;1.80;;
75246;SDS011;63844;50.042;19.224;2023-10-08T09:19:05;5.10;;;1.70;;
75246;SDS011;63844;50.042;19.224;2023-10-08T09:20:48;3.60;;;1.90;;
75246;SDS011;63844;50.042;19.224;2023-10-08T09:22:24;3.50;;;1.60;;
75246;SDS011;63844;50.042;19.224;2023-10-08T09:24:01;2.80;;;1.70;;
75246;SDS011;63844;50.042;19.224;2023-10-08T09:25:38;5.80;;;2.00;;
75246;SDS011;63844;50.042;19.224;2023-10-08T09:27:18;4.50;;;2.50;;
75246;SDS011;63844;50.042;19.224;2023-10-08T09:28:55;3.00;;;1.60;;
75246;SDS011;63844;50.042;19.224;2023-10-08T09:30:31;3.20;;;1.50;;
75246;SDS011;63844;50.042;19.224;2023-10-08T09:32:10;3.80;;;2.10;;
75246;SDS011;63844;50.042;19.224;2023-10-08T09:33:55;3.20;;;1.70;;
75246;SDS011;63844;50.042;19.224;2023-10-08T09:35:33;4.30;;;1.60;;
75246;SDS011;63844;50.042;19.224;2023-10-08T09:37:10;4.00;;;2.00;;
75246;SDS011;63844;50.042;19.224;2023-10-08T09:38:48;3.90;;;1.90;;
75246;SDS011;63844;50.042;19.224;2023-10-08T09:40:25;5.70;;;1.80;;
75246;SDS011;63844;50.042;19.224;2023-10-08T09:42:02;2.40;;;1.60;;
75246;SDS011;63844;50.042;19.224;2023-10-08T09:43:40;3.90;;;1.50;;
75246;SDS011;63844;50.042;19.224;2023-10-08T09:45:18;2.20;;;1.50;;
75246;SDS011;63844;50.042;19.224;2023-10-08T09:47:07;3.90;;;1.70;;
75246;SDS011;63844;50.042;19.224;2023-10-08T09:48:49;4.90;;;2.00;;
75246;SDS011;63844;50.042;19.224;2023-10-08T09:50:30;4.20;;;1.40;;
75246;SDS011;63844;50.042;19.224;2023-10-08T09:52:11;3.80;;;1.40;;
75246;SDS011;63844;50.042;19.224;2023-10-08T09:53:52;1.80;;;1.20;;
75246;SDS011;63844;50.042;19.224;2023-10-08T09:55:43;3.40;;;1.10;;
75246;SDS011;63844;50.042;19.224;2023-10-08T09:57:22;2.30;;;1.10;;
75246;SDS011;63844;50.042;19.224;2023-10-08T09:59:02;4.40;;;1.70;;
75246;SDS011;63844;50.042;19.224;2023-10-08T10:00:39;6.00;;;2.00;;
75246;SDS011;63844;50.042;19.224;2023-10-08T10:02:18;3.70;;;1.70;;
75246;SDS011;63844;50.042;19.224;2023-10-08T10:03:59;3.40;;;1.70;;
75246;SDS011;63844;50.042;19.224;2023-10-08T10:05:36;2.50;;;1.40;;